Time,TemperatureF,DewpointF,PressureIn,WindDirection,WindDirectionDegrees,WindSpeedMPH,WindSpeedGustMPH,Humidity,HourlyPrecipIn,Conditions,Clouds,dailyrainin,SoftwareType,DateUTC
2013-01-17 00:02:00,47.6,47.1,29.93,WNW,286,0.0,0.0,98,0.05,,---,0.00,VWS V14.01,2013-01-17 05:02:00,
2013-01-17 00:03:00,47.6,47.1,29.93,WNW,286,0.0,0.0,98,0.05,,---,0.00,VWS V14.01,2013-01-17 05:03:00,
2013-01-17 00:08:00,47.6,47.1,29.93,WNW,286,0.0,2.0,98,0.06,,---,0.01,VWS V14.01,2013-01-17 05:08:00,
2013-01-17 00:13:00,47.7,47.2,29.93,WNW,286,0.0,0.0,98,0.05,,---,0.01,VWS V14.01,2013-01-17 05:13:00,
2013-01-17 00:18:00,47.7,47.2,29.93,WNW,286,0.0,2.0,98,0.05,,---,0.01,VWS V14.01,2013-01-17 05:18:00,
2013-01-17 00:23:00,47.7,47.2,29.93,WNW,286,0.0,0.0,98,0.04,,---,0.01,VWS V14.01,2013-01-17 05:23:00,
2013-01-17 00:28:00,47.7,47.2,29.93,WNW,286,0.0,0.0,98,0.04,,---,0.01,VWS V14.01,2013-01-17 05:28:00,
2013-01-17 00:33:00,47.8,47.3,29.92,WNW,286,0.0,1.0,98,0.03,,---,0.01,VWS V14.01,2013-01-17 05:33:00,
2013-01-17 00:38:00,47.8,47.3,29.92,WNW,286,0.0,1.0,98,0.04,,---,0.02,VWS V14.01,2013-01-17 05:38:00,
2013-01-17 00:43:00,47.8,47.3,29.93,WNW,286,0.0,1.0,98,0.03,,---,0.02,VWS V14.01,2013-01-17 05:43:00,
2013-01-17 00:49:00,47.8,47.3,29.93,WNW,286,1.0,3.0,98,0.04,,---,0.03,VWS V14.01,2013-01-17 05:49:00,
2013-01-17 00:54:00,47.8,47.3,29.93,WNW,286,0.0,2.0,98,0.03,,---,0.03,VWS V14.01,2013-01-17 05:54:00,
2013-01-17 00:59:00,47.7,47.2,29.92,WNW,286,0.0,2.0,98,0.03,,---,0.03,VWS V14.01,2013-01-17 05:59:00,
2013-01-17 01:04:00,47.7,47.2,29.92,WNW,286,0.0,1.0,98,0.04,,---,0.04,VWS V14.01,2013-01-17 06:04:00,
2013-01-17 01:09:00,47.7,47.2,29.92,WNW,286,0.0,1.0,98,0.05,,---,0.05,VWS V14.01,2013-01-17 06:09:00,
2013-01-17 01:14:00,47.7,47.2,29.92,WNW,286,0.0,0.0,98,0.04,,---,0.05,VWS V14.01,2013-01-17 06:14:00,
2013-01-17 01:19:00,47.8,47.3,29.92,WNW,286,0.0,0.0,98,0.04,,---,0.05,VWS V14.01,2013-01-17 06:19:00,
2013-01-17 01:24:00,47.8,47.3,29.92,WNW,286,0.0,2.0,98,0.04,,---,0.05,VWS V14.01,2013-01-17 06:24:00,
2013-01-17 01:29:00,47.8,47.3,29.92,WNW,286,0.0,2.0,98,0.05,,---,0.06,VWS V14.01,2013-01-17 06:29:00,
2013-01-17 01:34:00,47.8,47.3,29.92,WNW,286,0.0,0.0,98,0.06,,---,0.07,VWS V14.01,2013-01-17 06:34:00,
2013-01-17 01:39:00,47.8,47.3,29.92,WNW,286,1.0,2.0,98,0.06,,---,0.07,VWS V14.01,2013-01-17 06:39:00,
2013-01-17 01:44:00,47.8,47.3,29.91,WNW,286,0.0,2.0,98,0.05,,---,0.07,VWS V14.01,2013-01-17 06:44:00,
2013-01-17 01:49:00,47.8,47.3,29.91,South,186,0.0,2.0,98,0.05,,---,0.07,VWS V14.01,2013-01-17 06:49:00,
2013-01-17 01:54:00,47.9,47.4,29.91,South,186,1.0,2.0,98,0.04,,---,0.07,VWS V14.01,2013-01-17 06:54:00,
2013-01-17 01:59:00,47.9,47.4,29.92,South,189,0.0,2.0,98,0.04,,---,0.07,VWS V14.01,2013-01-17 06:59:00,
2013-01-17 02:04:00,47.9,47.4,29.92,South,189,0.0,0.0,98,0.05,,---,0.08,VWS V14.01,2013-01-17 07:04:00,
2013-01-17 02:09:00,47.9,47.4,29.92,South,189,0.0,0.0,98,0.05,,---,0.08,VWS V14.01,2013-01-17 07:09:00,
2013-01-17 02:15:00,47.9,47.4,29.91,South,189,0.0,1.0,98,0.03,,---,0.08,VWS V14.01,2013-01-17 07:15:00,
2013-01-17 02:20:00,47.9,47.4,29.91,South,189,0.0,0.0,98,0.03,,---,0.08,VWS V14.01,2013-01-17 07:20:00,
2013-01-17 02:25:00,47.9,47.4,29.91,South,189,0.0,2.0,98,0.03,,---,0.08,VWS V14.01,2013-01-17 07:25:00,
2013-01-17 02:30:00,47.9,47.4,29.92,South,189,0.0,0.0,98,0.03,,---,0.09,VWS V14.01,2013-01-17 07:30:00,
2013-01-17 02:35:00,47.9,47.4,29.92,South,189,0.0,0.0,98,0.03,,---,0.09,VWS V14.01,2013-01-17 07:35:00,
2013-01-17 02:40:00,48.0,47.5,29.92,South,189,0.0,0.0,98,0.03,,---,0.10,VWS V14.01,2013-01-17 07:40:00,
2013-01-17 02:45:00,48.0,47.5,29.93,South,189,0.0,0.0,98,0.04,,---,0.11,VWS V14.01,2013-01-17 07:45:00,
2013-01-17 02:50:00,48.0,47.5,29.93,South,189,0.0,0.0,98,0.06,,---,0.13,VWS V14.01,2013-01-17 07:50:00,
2013-01-17 02:55:00,48.0,47.5,29.93,South,189,0.0,0.0,98,0.07,,---,0.14,VWS V14.01,2013-01-17 07:55:00,
2013-01-17 03:00:00,48.0,47.5,29.93,South,189,0.0,0.0,98,0.08,,---,0.15,VWS V14.01,2013-01-17 08:00:00,
2013-01-17 03:05:00,48.0,47.5,29.93,South,189,0.0,0.0,98,0.08,,---,0.15,VWS V14.01,2013-01-17 08:05:00,
2013-01-17 03:10:00,48.1,47.6,29.93,South,189,0.0,0.0,98,0.07,,---,0.15,VWS V14.01,2013-01-17 08:10:00,
2013-01-17 03:15:00,48.1,47.6,29.92,South,189,0.0,0.0,98,0.07,,---,0.15,VWS V14.01,2013-01-17 08:15:00,
2013-01-17 03:20:00,48.1,47.6,29.92,South,189,0.0,0.0,98,0.07,,---,0.15,VWS V14.01,2013-01-17 08:20:00,
2013-01-17 03:26:00,48.1,47.6,29.92,South,189,0.0,1.0,98,0.08,,---,0.16,VWS V14.01,2013-01-17 08:26:00,
2013-01-17 03:31:00,48.1,47.6,29.92,South,189,0.0,1.0,98,0.07,,---,0.16,VWS V14.01,2013-01-17 08:31:00,
2013-01-17 03:36:00,48.2,47.7,29.92,South,189,0.0,1.0,98,0.07,,---,0.16,VWS V14.01,2013-01-17 08:36:00,
2013-01-17 03:41:00,48.2,47.7,29.92,South,189,0.0,0.0,98,0.06,,---,0.16,VWS V14.01,2013-01-17 08:41:00,
2013-01-17 03:46:00,48.2,47.7,29.93,South,189,2.0,2.0,98,0.07,,---,0.17,VWS V14.01,2013-01-17 08:46:00,
2013-01-17 03:51:00,48.2,47.7,29.93,South,189,2.0,2.0,98,0.04,,---,0.17,VWS V14.01,2013-01-17 08:51:00,
2013-01-17 03:56:00,48.2,47.7,29.93,South,189,0.0,3.0,98,0.04,,---,0.17,VWS V14.01,2013-01-17 08:56:00,
2013-01-17 04:01:00,48.2,47.7,29.93,South,189,2.0,2.0,98,0.03,,---,0.18,VWS V14.01,2013-01-17 09:01:00,
2013-01-17 04:06:00,48.3,47.8,29.93,South,189,2.0,3.0,98,0.04,,---,0.19,VWS V14.01,2013-01-17 09:06:00,
2013-01-17 04:11:00,48.3,47.8,29.93,South,189,2.0,3.0,98,0.04,,---,0.19,VWS V14.01,2013-01-17 09:11:00,
2013-01-17 04:16:00,48.3,47.8,29.92,South,189,1.0,3.0,98,0.05,,---,0.20,VWS V14.01,2013-01-17 09:16:00,
2013-01-17 04:21:00,48.3,47.8,29.92,East,80,2.0,3.0,98,0.05,,---,0.20,VWS V14.01,2013-01-17 09:21:00,
2013-01-17 04:26:00,48.3,48.0,29.92,ENE,78,0.0,3.0,99,0.06,,---,0.21,VWS V14.01,2013-01-17 09:26:00,
2013-01-17 04:31:00,48.4,48.1,29.92,ENE,78,1.0,3.0,99,0.05,,---,0.21,VWS V14.01,2013-01-17 09:31:00,
2013-01-17 04:37:00,48.5,48.2,29.92,NE,44,3.0,4.0,99,0.05,,---,0.21,VWS V14.01,2013-01-17 09:37:00,
2013-01-17 04:42:00,48.5,48.2,29.92,NE,46,1.0,4.0,99,0.05,,---,0.21,VWS V14.01,2013-01-17 09:42:00,
2013-01-17 04:47:00,48.6,48.3,29.92,NE,46,2.0,4.0,99,0.05,,---,0.21,VWS V14.01,2013-01-17 09:47:00,
2013-01-17 04:52:00,48.6,48.3,29.92,NE,41,3.0,4.0,99,0.04,,---,0.21,VWS V14.01,2013-01-17 09:52:00,
2013-01-17 04:57:00,48.6,48.3,29.92,NE,46,2.0,5.0,99,0.04,,---,0.21,VWS V14.01,2013-01-17 09:57:00,
2013-01-17 05:02:00,48.6,48.3,29.92,NE,38,3.0,5.0,99,0.04,,---,0.22,VWS V14.01,2013-01-17 10:02:00,
2013-01-17 05:07:00,48.6,48.3,29.92,ENE,62,3.0,6.0,99,0.04,,---,0.22,VWS V14.01,2013-01-17 10:07:00,
2013-01-17 05:12:00,48.5,48.2,29.92,NNE,25,3.0,4.0,99,0.04,,---,0.23,VWS V14.01,2013-01-17 10:12:00,
2013-01-17 05:17:00,48.5,48.2,29.92,NE,43,3.0,5.0,99,0.04,,---,0.23,VWS V14.01,2013-01-17 10:17:00,
2013-01-17 05:22:00,48.5,48.2,29.92,NE,49,2.0,5.0,99,0.03,,---,0.23,VWS V14.01,2013-01-17 10:22:00,
2013-01-17 05:27:00,48.4,48.1,29.92,NE,49,2.0,5.0,99,0.03,,---,0.23,VWS V14.01,2013-01-17 10:27:00,
2013-01-17 05:32:00,48.4,48.1,29.92,NE,44,0.0,6.0,99,0.02,,---,0.23,VWS V14.01,2013-01-17 10:32:00,
2013-01-17 05:37:00,48.3,48.0,29.92,NE,44,3.0,6.0,99,0.03,,---,0.24,VWS V14.01,2013-01-17 10:37:00,
2013-01-17 05:42:00,48.3,48.0,29.92,NE,44,2.0,3.0,99,0.03,,---,0.24,VWS V14.01,2013-01-17 10:42:00,
2013-01-17 05:47:00,48.3,47.8,29.92,NE,44,1.0,4.0,98,0.04,,---,0.25,VWS V14.01,2013-01-17 10:47:00,
2013-01-17 05:53:00,48.3,47.8,29.92,NE,50,1.0,5.0,98,0.04,,---,0.25,VWS V14.01,2013-01-17 10:53:00,
2013-01-17 05:58:00,48.2,47.7,29.92,NE,38,3.0,5.0,98,0.05,,---,0.26,VWS V14.01,2013-01-17 10:58:00,
2013-01-17 06:03:00,48.1,47.6,29.90,ENE,61,0.0,4.0,98,0.05,,---,0.26,VWS V14.01,2013-01-17 11:03:00,
2013-01-17 06:08:00,48.1,47.6,29.90,ENE,57,2.0,4.0,98,0.05,,---,0.26,VWS V14.01,2013-01-17 11:08:00,
2013-01-17 06:13:00,48.1,47.6,29.90,NE,45,2.0,4.0,98,0.05,,---,0.27,VWS V14.01,2013-01-17 11:13:00,
2013-01-17 06:18:00,48.1,47.6,29.92,ENE,61,1.0,4.0,98,0.05,,---,0.27,VWS V14.01,2013-01-17 11:18:00,
2013-01-17 06:23:00,48.1,47.6,29.92,ENE,62,0.0,3.0,98,0.04,,---,0.27,VWS V14.01,2013-01-17 11:23:00,
2013-01-17 06:28:00,48.1,47.6,29.92,ENE,62,1.0,3.0,98,0.04,,---,0.27,VWS V14.01,2013-01-17 11:28:00,
2013-01-17 06:33:00,48.1,47.8,29.92,ENE,62,1.0,3.0,99,0.04,,---,0.27,VWS V14.01,2013-01-17 11:33:00,
2013-01-17 06:38:00,48.1,47.6,29.92,NE,51,0.0,3.0,98,0.04,,---,0.27,VWS V14.01,2013-01-17 11:38:00,
2013-01-17 06:43:00,48.1,47.6,29.92,NE,51,0.0,1.0,98,0.03,,---,0.27,VWS V14.01,2013-01-17 11:43:00,
2013-01-17 06:48:00,48.2,47.9,29.94,NE,51,0.0,2.0,99,0.03,,---,0.27,VWS V14.01,2013-01-17 11:48:00,
2013-01-17 06:53:00,48.2,47.9,29.94,NE,51,3.0,3.0,99,0.03,,---,0.28,VWS V14.01,2013-01-17 11:53:00,
2013-01-17 06:58:00,48.1,47.6,29.94,NE,51,2.0,4.0,98,0.04,,---,0.29,VWS V14.01,2013-01-17 11:58:00,
2013-01-17 07:03:00,48.1,47.8,29.94,NE,35,3.0,5.0,99,0.03,,---,0.29,VWS V14.01,2013-01-17 12:03:00,
2013-01-17 07:08:00,48.1,47.8,29.94,NE,41,1.0,6.0,99,0.04,,---,0.30,VWS V14.01,2013-01-17 12:08:00,
2013-01-17 07:13:00,48.1,47.8,29.94,NE,34,5.0,6.0,99,0.03,,---,0.30,VWS V14.01,2013-01-17 12:13:00,
2013-01-17 07:18:00,48.1,47.8,29.94,NE,40,3.0,6.0,99,0.04,,---,0.31,VWS V14.01,2013-01-17 12:18:00,
2013-01-17 07:24:00,48.0,47.7,29.94,NE,40,1.0,3.0,99,0.04,,---,0.31,VWS V14.01,2013-01-17 12:24:00,
2013-01-17 07:29:00,48.0,47.7,29.95,NE,38,4.0,6.0,99,0.04,,---,0.31,VWS V14.01,2013-01-17 12:29:00,
2013-01-17 07:34:00,47.9,47.6,29.95,NE,46,5.0,5.0,99,0.04,,---,0.31,VWS V14.01,2013-01-17 12:34:00,
2013-01-17 07:39:00,47.7,47.4,29.95,NE,52,1.0,6.0,99,0.04,,---,0.31,VWS V14.01,2013-01-17 12:39:00,
2013-01-17 07:44:00,47.7,47.2,29.95,NE,50,2.0,6.0,98,0.06,,---,0.33,VWS V14.01,2013-01-17 12:44:00,
2013-01-17 07:49:00,47.6,47.1,29.95,NE,49,1.0,6.0,98,0.06,,---,0.33,VWS V14.01,2013-01-17 12:49:00,
2013-01-17 07:54:00,47.5,47.0,29.95,NE,54,1.0,6.0,98,0.07,,---,0.34,VWS V14.01,2013-01-17 12:54:00,
2013-01-17 07:59:00,47.4,46.9,29.96,NE,37,4.0,6.0,98,0.08,,---,0.35,VWS V14.01,2013-01-17 12:59:00,
2013-01-17 08:05:00,47.4,46.9,29.96,NE,46,3.0,5.0,98,0.06,,---,0.35,VWS V14.01,2013-01-17 13:05:00,
2013-01-17 08:10:00,47.3,47.0,29.96,NE,38,3.0,3.0,99,0.05,,---,0.35,VWS V14.01,2013-01-17 13:10:00,
2013-01-17 08:15:00,47.3,47.0,29.96,NE,36,2.0,9.0,99,0.06,,---,0.36,VWS V14.01,2013-01-17 13:15:00,
2013-01-17 08:20:00,47.2,46.9,29.96,NE,38,4.0,5.0,99,0.06,,---,0.37,VWS V14.01,2013-01-17 13:20:00,
2013-01-17 08:25:00,47.2,46.9,29.96,NE,51,2.0,6.0,99,0.06,,---,0.37,VWS V14.01,2013-01-17 13:25:00,
2013-01-17 08:30:00,47.0,46.5,29.98,NE,36,3.0,3.0,98,0.07,,---,0.38,VWS V14.01,2013-01-17 13:30:00,
2013-01-17 08:35:00,46.8,46.3,29.98,NE,51,5.0,5.0,98,0.07,,---,0.38,VWS V14.01,2013-01-17 13:35:00,
2013-01-17 08:40:00,46.4,45.9,29.98,NE,54,6.0,9.0,98,0.08,,---,0.39,VWS V14.01,2013-01-17 13:40:00,
2013-01-17 08:45:00,46.2,45.7,29.98,NE,51,2.0,9.0,98,0.09,,---,0.40,VWS V14.01,2013-01-17 13:45:00,
2013-01-17 08:50:00,46.1,45.6,29.98,NNE,32,6.0,7.0,98,0.08,,---,0.41,VWS V14.01,2013-01-17 13:50:00,
2013-01-17 08:55:00,45.9,45.4,29.98,NE,46,3.0,9.0,98,0.08,,---,0.41,VWS V14.01,2013-01-17 13:55:00,
2013-01-17 09:00:00,46.0,45.5,29.98,North,9,1.0,6.0,98,0.06,,---,0.41,VWS V14.01,2013-01-17 14:00:00,
2013-01-17 09:06:00,46.0,45.5,29.98,NE,37,5.0,11.0,98,0.06,,---,0.41,VWS V14.01,2013-01-17 14:06:00,
2013-01-17 09:11:00,46.0,45.5,29.98,NE,45,2.0,7.0,98,0.07,,---,0.42,VWS V14.01,2013-01-17 14:11:00,
2013-01-17 09:16:00,45.9,45.4,29.97,NE,42,3.0,8.0,98,0.07,,---,0.42,VWS V14.01,2013-01-17 14:16:00,
2013-01-17 09:21:00,45.8,45.3,29.97,NE,38,4.0,8.0,98,0.05,,---,0.42,VWS V14.01,2013-01-17 14:21:00,
2013-01-17 09:26:00,45.8,45.3,29.97,NE,41,6.0,9.0,98,0.05,,---,0.42,VWS V14.01,2013-01-17 14:26:00,
2013-01-17 09:31:00,45.7,45.2,29.96,ENE,58,2.0,5.0,98,0.05,,---,0.42,VWS V14.01,2013-01-17 14:31:00,
2013-01-17 09:36:00,45.5,45.0,29.96,NE,40,2.0,13.0,98,0.06,,---,0.43,VWS V14.01,2013-01-17 14:36:00,
2013-01-17 09:41:00,45.4,44.9,29.96,NE,44,5.0,7.0,98,0.04,,---,0.43,VWS V14.01,2013-01-17 14:41:00,
2013-01-17 09:46:00,45.3,44.8,29.97,NE,51,6.0,7.0,98,0.04,,---,0.43,VWS V14.01,2013-01-17 14:46:00,
2013-01-17 09:51:00,45.2,44.7,29.97,ENE,72,1.0,6.0,98,0.03,,---,0.44,VWS V14.01,2013-01-17 14:51:00,
2013-01-17 09:56:00,45.1,44.6,29.97,NNE,26,9.0,10.0,98,0.03,,---,0.44,VWS V14.01,2013-01-17 14:56:00,
2013-01-17 10:01:00,44.9,44.1,29.98,NE,40,2.0,6.0,97,0.04,,---,0.45,VWS V14.01,2013-01-17 15:01:00,
2013-01-17 10:07:00,44.8,44.0,29.98,NNE,30,4.0,7.0,97,0.04,,---,0.45,VWS V14.01,2013-01-17 15:07:00,
2013-01-17 10:12:00,44.9,44.1,29.98,ENE,59,3.0,7.0,97,0.04,,---,0.45,VWS V14.01,2013-01-17 15:12:00,
2013-01-17 10:17:00,45.0,44.5,29.97,NNE,30,5.0,9.0,98,0.05,,---,0.46,VWS V14.01,2013-01-17 15:17:00,
2013-01-17 10:22:00,45.0,44.5,29.97,NE,54,3.0,6.0,98,0.04,,---,0.46,VWS V14.01,2013-01-17 15:22:00,
2013-01-17 10:27:00,45.0,44.5,29.97,NNE,16,4.0,6.0,98,0.04,,---,0.46,VWS V14.01,2013-01-17 15:27:00,
2013-01-17 10:32:00,45.1,44.6,29.98,ENE,62,2.0,7.0,98,0.05,,---,0.47,VWS V14.01,2013-01-17 15:32:00,
2013-01-17 10:37:00,45.1,44.6,29.98,NNE,29,2.0,7.0,98,0.05,,---,0.47,VWS V14.01,2013-01-17 15:37:00,
2013-01-17 10:42:00,45.1,44.6,29.98,East,83,3.0,7.0,98,0.04,,---,0.47,VWS V14.01,2013-01-17 15:42:00,
2013-01-17 10:47:00,45.0,44.2,29.98,NE,44,5.0,14.0,97,0.04,,---,0.47,VWS V14.01,2013-01-17 15:47:00,
2013-01-17 10:52:00,44.9,44.1,29.98,NE,41,5.0,7.0,97,0.03,,---,0.47,VWS V14.01,2013-01-17 15:52:00,
2013-01-17 10:58:00,44.7,43.9,29.98,NNE,24,6.0,10.0,97,0.04,,---,0.48,VWS V14.01,2013-01-17 15:58:00,
2013-01-17 11:03:00,44.6,43.8,29.99,NNE,17,9.0,9.0,97,0.03,,---,0.48,VWS V14.01,2013-01-17 16:03:00,
2013-01-17 11:08:00,44.5,43.7,29.99,North,9,9.0,9.0,97,0.05,,---,0.50,VWS V14.01,2013-01-17 16:08:00,
2013-01-17 11:13:00,44.5,43.7,29.99,NE,40,3.0,8.0,97,0.06,,---,0.51,VWS V14.01,2013-01-17 16:13:00,
2013-01-17 11:18:00,44.5,43.7,29.96,NE,44,3.0,9.0,97,0.06,,---,0.51,VWS V14.01,2013-01-17 16:18:00,
2013-01-17 11:23:00,44.5,43.7,29.96,NNE,30,5.0,9.0,97,0.06,,---,0.52,VWS V14.01,2013-01-17 16:23:00,
2013-01-17 11:28:00,44.1,43.3,29.96,NE,43,4.0,16.0,97,0.07,,---,0.53,VWS V14.01,2013-01-17 16:28:00,
2013-01-17 11:33:00,43.6,42.8,29.95,ENE,57,4.0,11.0,97,0.08,,---,0.55,VWS V14.01,2013-01-17 16:33:00,
2013-01-17 11:38:00,43.3,42.5,29.95,NNE,28,4.0,11.0,97,0.09,,---,0.56,VWS V14.01,2013-01-17 16:38:00,
2013-01-17 11:43:00,43.1,42.3,29.95,NE,34,5.0,12.0,97,0.12,,---,0.59,VWS V14.01,2013-01-17 16:43:00,
2013-01-17 11:48:00,42.9,42.1,29.96,NNE,13,3.0,12.0,97,0.14,,---,0.61,VWS V14.01,2013-01-17 16:48:00,
2013-01-17 11:54:00,42.9,42.1,29.96,NNE,27,6.0,11.0,97,0.17,,---,0.64,VWS V14.01,2013-01-17 16:54:00,
2013-01-17 11:59:00,42.7,41.9,29.94,NE,38,3.0,12.0,97,0.18,,---,0.65,VWS V14.01,2013-01-17 16:59:00,
2013-01-17 12:04:00,42.8,42.0,29.94,NNE,28,5.0,10.0,97,0.18,,---,0.66,VWS V14.01,2013-01-17 17:04:00,
2013-01-17 12:09:00,42.5,41.7,29.94,NNE,13,6.0,13.0,97,0.19,,---,0.67,VWS V14.01,2013-01-17 17:09:00,
2013-01-17 12:14:00,42.4,41.6,29.95,NE,43,3.0,10.0,97,0.17,,---,0.67,VWS V14.01,2013-01-17 17:14:00,
2013-01-17 12:19:00,42.3,41.5,29.95,North,355,3.0,10.0,97,0.18,,---,0.68,VWS V14.01,2013-01-17 17:19:00,
2013-01-17 12:24:00,42.2,41.4,29.95,NE,50,4.0,10.0,97,0.19,,---,0.70,VWS V14.01,2013-01-17 17:24:00,
2013-01-17 12:29:00,42.3,41.5,29.94,NNE,15,2.0,10.0,97,0.20,,---,0.71,VWS V14.01,2013-01-17 17:29:00,
2013-01-17 12:34:00,42.0,41.2,29.94,NNE,26,11.0,15.0,97,0.18,,---,0.72,VWS V14.01,2013-01-17 17:34:00,
2013-01-17 12:39:00,42.0,41.2,29.94,NE,39,5.0,15.0,97,0.19,,---,0.73,VWS V14.01,2013-01-17 17:39:00,
2013-01-17 12:45:00,42.0,41.2,29.91,NNE,25,5.0,13.0,97,0.16,,---,0.73,VWS V14.01,2013-01-17 17:45:00,
2013-01-17 12:50:00,41.8,41.0,29.91,NE,45,3.0,6.0,97,0.11,,---,0.73,VWS V14.01,2013-01-17 17:50:00,
2013-01-17 12:55:00,41.6,40.8,29.91,NNE,15,4.0,7.0,97,0.11,,---,0.73,VWS V14.01,2013-01-17 17:55:00,
2013-01-17 13:00:00,41.4,40.6,29.91,North,9,5.0,5.0,97,0.09,,---,0.74,VWS V14.01,2013-01-17 18:00:00,
2013-01-17 13:05:00,41.4,40.6,29.91,NE,34,8.0,16.0,97,0.09,,---,0.74,VWS V14.01,2013-01-17 18:05:00,
2013-01-17 13:10:00,41.1,40.3,29.91,NNE,32,7.0,9.0,97,0.07,,---,0.74,VWS V14.01,2013-01-17 18:10:00,
2013-01-17 13:15:00,41.0,40.0,29.88,NNE,32,6.0,14.0,96,0.07,,---,0.74,VWS V14.01,2013-01-17 18:15:00,
2013-01-17 13:20:00,40.9,39.8,29.88,NNE,22,6.0,9.0,96,0.05,,---,0.74,VWS V14.01,2013-01-17 18:20:00,
2013-01-17 13:25:00,40.9,40.1,29.88,ENE,70,7.0,13.0,97,0.06,,---,0.75,VWS V14.01,2013-01-17 18:25:00,
2013-01-17 13:30:00,40.7,39.9,29.88,NE,38,5.0,7.0,97,0.04,,---,0.75,VWS V14.01,2013-01-17 18:30:00,
2013-01-17 13:35:00,40.5,39.7,29.88,NE,43,3.0,7.0,97,0.04,,---,0.75,VWS V14.01,2013-01-17 18:35:00,
2013-01-17 13:41:00,40.2,39.2,29.88,NE,46,12.0,18.0,96,0.03,,---,0.76,VWS V14.01,2013-01-17 18:41:00,
2013-01-17 13:46:00,40.1,39.0,29.86,NNE,23,5.0,18.0,96,0.03,,---,0.76,VWS V14.01,2013-01-17 18:46:00,
2013-01-17 13:51:00,39.9,39.1,29.86,North,355,2.0,7.0,97,0.03,,---,0.76,VWS V14.01,2013-01-17 18:51:00,
2013-01-17 13:56:00,39.8,38.8,29.86,NNE,25,2.0,10.0,96,0.04,,---,0.77,VWS V14.01,2013-01-17 18:56:00,
2013-01-17 14:01:00,39.7,38.7,29.87,NNE,26,4.0,4.0,96,0.03,,---,0.77,VWS V14.01,2013-01-17 19:01:00,
2013-01-17 14:06:00,39.7,38.7,29.87,NNW,346,3.0,7.0,96,0.04,,---,0.78,VWS V14.01,2013-01-17 19:06:00,
2013-01-17 14:11:00,39.6,38.8,29.87,North,5,4.0,7.0,97,0.05,,---,0.79,VWS V14.01,2013-01-17 19:11:00,
2013-01-17 14:16:00,39.5,38.7,29.89,NNE,24,5.0,14.0,97,0.06,,---,0.80,VWS V14.01,2013-01-17 19:16:00,
2013-01-17 14:21:00,39.4,38.6,29.89,NNE,28,6.0,9.0,97,0.08,,---,0.82,VWS V14.01,2013-01-17 19:21:00,
2013-01-17 14:26:00,39.4,38.6,29.89,NNE,20,4.0,13.0,97,0.10,,---,0.84,VWS V14.01,2013-01-17 19:26:00,
2013-01-17 14:31:00,39.4,38.6,29.87,North,9,5.0,7.0,97,0.11,,---,0.86,VWS V14.01,2013-01-17 19:31:00,
2013-01-17 14:36:00,39.4,38.6,29.87,NW,317,2.0,12.0,97,0.12,,---,0.87,VWS V14.01,2013-01-17 19:36:00,
2013-01-17 14:41:00,39.5,38.7,29.87,NNE,13,7.0,9.0,97,0.12,,---,0.88,VWS V14.01,2013-01-17 19:41:00,
2013-01-17 14:46:00,39.5,38.7,29.88,NNE,25,6.0,10.0,97,0.12,,---,0.88,VWS V14.01,2013-01-17 19:46:00,
2013-01-17 14:51:00,39.6,38.8,29.88,NNE,15,0.0,4.0,97,0.13,,---,0.89,VWS V14.01,2013-01-17 19:51:00,
2013-01-17 14:56:00,39.7,38.9,29.88,NNE,32,3.0,7.0,97,0.13,,---,0.89,VWS V14.01,2013-01-17 19:56:00,
2013-01-17 15:01:00,39.7,38.9,29.86,North,355,5.0,13.0,97,0.12,,---,0.89,VWS V14.01,2013-01-17 20:01:00,
2013-01-17 15:06:00,39.6,38.8,29.86,NNE,19,9.0,17.0,97,0.13,,---,0.90,VWS V14.01,2013-01-17 20:06:00,
2013-01-17 15:12:00,39.6,38.8,29.86,NNE,31,3.0,11.0,97,0.12,,---,0.90,VWS V14.01,2013-01-17 20:12:00,
2013-01-17 15:17:00,39.7,38.9,29.85,NE,34,4.0,13.0,97,0.12,,---,0.90,VWS V14.01,2013-01-17 20:17:00,
2013-01-17 15:22:00,39.8,39.0,29.85,NNE,31,4.0,5.0,97,0.09,,---,0.90,VWS V14.01,2013-01-17 20:22:00,
2013-01-17 15:27:00,39.8,39.0,29.85,NNE,33,4.0,10.0,97,0.10,,---,0.91,VWS V14.01,2013-01-17 20:27:00,
2013-01-17 15:32:00,39.8,39.0,29.87,North,355,8.0,11.0,97,0.06,,---,0.92,VWS V14.01,2013-01-17 20:32:00,
2013-01-17 15:37:00,39.9,39.1,29.87,NNE,17,2.0,11.0,97,0.06,,---,0.92,VWS V14.01,2013-01-17 20:37:00,
2013-01-17 15:42:00,40.0,39.2,29.87,NE,39,3.0,9.0,97,0.06,,---,0.93,VWS V14.01,2013-01-17 20:42:00,
2013-01-17 15:47:00,40.1,39.3,29.90,NNE,15,5.0,9.0,97,0.09,,---,0.96,VWS V14.01,2013-01-17 20:47:00,
2013-01-17 15:52:00,40.0,39.2,29.90,NE,39,6.0,10.0,97,0.12,,---,1.00,VWS V14.01,2013-01-17 20:52:00,
2013-01-17 15:57:00,40.0,39.2,29.90,North,5,4.0,11.0,97,0.15,,---,1.03,VWS V14.01,2013-01-17 20:57:00,
2013-01-17 16:02:00,40.0,39.2,29.90,NNE,28,4.0,7.0,97,0.17,,---,1.06,VWS V14.01,2013-01-17 21:02:00,
2013-01-17 16:07:00,40.0,39.2,29.90,NE,49,6.0,12.0,97,0.19,,---,1.08,VWS V14.01,2013-01-17 21:07:00,
2013-01-17 16:12:00,40.0,39.2,29.90,North,355,8.0,10.0,97,0.20,,---,1.10,VWS V14.01,2013-01-17 21:12:00,
2013-01-17 16:18:00,40.0,39.2,29.89,NE,34,6.0,12.0,97,0.22,,---,1.12,VWS V14.01,2013-01-17 21:18:00,
2013-01-17 16:23:00,40.0,39.2,29.89,NNE,19,9.0,18.0,97,0.23,,---,1.13,VWS V14.01,2013-01-17 21:23:00,
2013-01-17 16:28:00,39.9,39.1,29.89,NE,50,9.0,21.0,97,0.24,,---,1.14,VWS V14.01,2013-01-17 21:28:00,
2013-01-17 16:33:00,39.8,39.0,29.87,NE,46,14.0,16.0,97,0.25,,---,1.16,VWS V14.01,2013-01-17 21:33:00,
2013-01-17 16:38:00,39.7,38.9,29.87,NNE,24,6.0,16.0,97,0.27,,---,1.18,VWS V14.01,2013-01-17 21:38:00,
2013-01-17 16:43:00,39.7,38.9,29.87,NNE,28,4.0,13.0,97,0.27,,---,1.20,VWS V14.01,2013-01-17 21:43:00,
2013-01-17 16:48:00,39.6,38.8,29.88,NE,34,6.0,13.0,97,0.28,,---,1.21,VWS V14.01,2013-01-17 21:48:00,
2013-01-17 16:53:00,39.6,38.8,29.88,NNE,17,6.0,11.0,97,0.25,,---,1.23,VWS V14.01,2013-01-17 21:53:00,
2013-01-17 16:59:00,39.6,38.8,29.89,North,11,8.0,11.0,97,0.26,,---,1.24,VWS V14.01,2013-01-17 21:59:00,
2013-01-17 17:04:00,39.5,38.7,29.89,NE,46,7.0,14.0,97,0.22,,---,1.26,VWS V14.01,2013-01-17 22:04:00,
2013-01-17 17:09:00,39.5,38.7,29.89,NNE,28,6.0,17.0,97,0.24,,---,1.28,VWS V14.01,2013-01-17 22:09:00,
2013-01-17 17:14:00,39.4,38.6,29.87,NE,53,11.0,13.0,97,0.21,,---,1.30,VWS V14.01,2013-01-17 22:14:00,
2013-01-17 17:19:00,39.4,38.6,29.87,NE,36,4.0,13.0,97,0.22,,---,1.31,VWS V14.01,2013-01-17 22:19:00,
2013-01-17 17:24:00,39.3,38.5,29.87,NNE,32,4.0,13.0,97,0.20,,---,1.32,VWS V14.01,2013-01-17 22:24:00,
2013-01-17 17:29:00,39.3,38.5,29.87,NNW,347,0.0,15.0,97,0.22,,---,1.34,VWS V14.01,2013-01-17 22:29:00,
2013-01-17 17:34:00,39.3,38.5,29.87,NE,36,6.0,10.0,97,0.22,,---,1.36,VWS V14.01,2013-01-17 22:34:00,
2013-01-17 17:39:00,39.3,38.5,29.87,NW,309,7.0,13.0,97,0.24,,---,1.38,VWS V14.01,2013-01-17 22:39:00,
2013-01-17 17:44:00,39.3,38.5,29.89,NE,56,4.0,13.0,97,0.21,,---,1.40,VWS V14.01,2013-01-17 22:44:00,
2013-01-17 17:49:00,39.2,38.4,29.89,NE,55,5.0,13.0,97,0.23,,---,1.42,VWS V14.01,2013-01-17 22:49:00,
2013-01-17 17:54:00,39.2,38.4,29.89,NE,46,6.0,18.0,97,0.21,,---,1.43,VWS V14.01,2013-01-17 22:54:00,
2013-01-17 17:59:00,39.2,38.4,29.89,NE,40,6.0,18.0,97,0.22,,---,1.44,VWS V14.01,2013-01-17 22:59:00,
2013-01-17 18:04:00,39.1,38.3,29.89,NNE,18,4.0,19.0,97,0.22,,---,1.46,VWS V14.01,2013-01-17 23:04:00,
2013-01-17 18:09:00,38.9,38.1,29.89,NNE,20,15.0,19.0,97,0.23,,---,1.47,VWS V14.01,2013-01-17 23:09:00,
2013-01-17 18:14:00,38.8,37.8,29.92,North,360,2.0,15.0,96,0.20,,---,1.48,VWS V14.01,2013-01-17 23:14:00,
2013-01-17 18:19:00,38.7,37.7,29.92,NE,34,9.0,15.0,96,0.22,,---,1.50,VWS V14.01,2013-01-17 23:19:00,
2013-01-17 18:24:00,38.5,37.5,29.92,North,355,11.0,16.0,96,0.20,,---,1.51,VWS V14.01,2013-01-17 23:24:00,
2013-01-17 18:30:00,38.3,37.3,29.93,NNW,329,3.0,16.0,96,0.21,,---,1.52,VWS V14.01,2013-01-17 23:30:00,
2013-01-17 18:35:00,38.2,37.2,29.93,NE,36,3.0,16.0,96,0.20,,---,1.54,VWS V14.01,2013-01-17 23:35:00,
2013-01-17 18:40:00,38.1,37.1,29.93,North,5,7.0,7.0,96,0.18,,---,1.56,VWS V14.01,2013-01-17 23:40:00,
2013-01-17 18:45:00,37.9,36.9,29.94,NNE,22,10.0,15.0,96,0.19,,---,1.57,VWS V14.01,2013-01-17 23:45:00,
2013-01-17 18:50:00,37.9,36.9,29.94,NNE,21,9.0,11.0,96,0.16,,---,1.58,VWS V14.01,2013-01-17 23:50:00,
2013-01-17 18:55:00,37.7,36.7,29.94,NNE,17,6.0,12.0,96,0.18,,---,1.60,VWS V14.01,2013-01-17 23:55:00,
2013-01-17 19:00:00,37.5,36.5,29.96,NE,46,9.0,11.0,96,0.18,,---,1.62,VWS V14.01,2013-01-18 00:00:00,
2013-01-17 19:05:00,37.2,36.2,29.96,NNE,22,6.0,18.0,96,0.19,,---,1.63,VWS V14.01,2013-01-18 00:05:00,
2013-01-17 19:10:00,36.8,35.5,29.96,NE,38,4.0,6.0,95,0.18,,---,1.65,VWS V14.01,2013-01-18 00:10:00,
2013-01-17 19:15:00,36.4,35.1,29.95,NNE,22,5.0,11.0,95,0.21,,---,1.68,VWS V14.01,2013-01-18 00:15:00,
2013-01-17 19:20:00,36.2,34.9,29.95,ENE,65,5.0,6.0,95,0.20,,---,1.70,VWS V14.01,2013-01-18 00:20:00,
2013-01-17 19:25:00,36.1,35.1,29.95,North,5,10.0,11.0,96,0.22,,---,1.72,VWS V14.01,2013-01-18 00:25:00,
2013-01-17 19:30:00,36.1,35.1,29.95,NE,36,10.0,10.0,96,0.21,,---,1.73,VWS V14.01,2013-01-18 00:30:00,
2013-01-17 19:35:00,36.1,35.1,29.95,NE,40,5.0,11.0,96,0.23,,---,1.75,VWS V14.01,2013-01-18 00:35:00,
2013-01-17 19:40:00,35.9,34.9,29.95,NE,42,6.0,12.0,96,0.21,,---,1.77,VWS V14.01,2013-01-18 00:40:00,
2013-01-17 19:45:00,35.7,34.7,29.96,NNE,33,7.0,14.0,96,0.22,,---,1.78,VWS V14.01,2013-01-18 00:45:00,
2013-01-17 19:50:00,35.5,34.5,29.96,NNW,342,5.0,11.0,96,0.22,,---,1.80,VWS V14.01,2013-01-18 00:50:00,
2013-01-17 19:56:00,35.4,34.4,29.96,NE,36,7.0,15.0,96,0.23,,---,1.81,VWS V14.01,2013-01-18 00:56:00,
2013-01-17 20:01:00,35.3,34.3,29.96,NNE,33,10.0,10.0,96,0.22,,---,1.83,VWS V14.01,2013-01-18 01:01:00,
2013-01-17 20:06:00,35.2,34.2,29.96,NE,36,6.0,14.0,96,0.24,,---,1.85,VWS V14.01,2013-01-18 01:06:00,
2013-01-17 20:11:00,35.1,34.1,29.96,NE,39,3.0,12.0,96,0.23,,---,1.88,VWS V14.01,2013-01-18 01:11:00,
2013-01-17 20:16:00,35.0,34.0,29.93,NNW,336,2.0,15.0,96,0.25,,---,1.90,VWS V14.01,2013-01-18 01:16:00,
2013-01-17 20:21:00,35.0,34.0,29.93,NNE,27,2.0,12.0,96,0.22,,---,1.91,VWS V14.01,2013-01-18 01:21:00,
2013-01-17 20:26:00,34.9,33.9,29.93,NE,45,6.0,14.0,96,0.23,,---,1.92,VWS V14.01,2013-01-18 01:26:00,
2013-01-17 20:31:00,34.7,33.7,29.96,East,84,6.0,10.0,96,0.20,,---,1.93,VWS V14.01,2013-01-18 01:31:00,
2013-01-17 20:36:00,34.6,33.6,29.96,NE,39,5.0,12.0,96,0.21,,---,1.94,VWS V14.01,2013-01-18 01:36:00,
2013-01-17 20:41:00,34.5,33.5,29.96,NE,35,6.0,11.0,96,0.18,,---,1.94,VWS V14.01,2013-01-18 01:41:00,
2013-01-17 20:46:00,34.3,33.3,29.97,NNE,30,4.0,12.0,96,0.18,,---,1.94,VWS V14.01,2013-01-18 01:46:00,
2013-01-17 20:52:00,34.1,33.1,29.97,North,5,2.0,4.0,96,0.14,,---,1.94,VWS V14.01,2013-01-18 01:52:00,
2013-01-17 20:57:00,33.9,32.9,29.97,NNE,28,4.0,7.0,96,0.14,,---,1.94,VWS V14.01,2013-01-18 01:57:00,
2013-01-17 21:02:00,33.8,32.8,29.99,North,5,3.0,5.0,96,0.12,,---,1.94,VWS V14.01,2013-01-18 02:02:00,
2013-01-17 21:07:00,33.7,32.7,29.99,NNE,32,2.0,5.0,96,0.12,,---,1.94,VWS V14.01,2013-01-18 02:07:00,
2013-01-17 21:12:00,33.6,32.6,29.99,NE,34,3.0,3.0,96,0.07,,---,1.94,VWS V14.01,2013-01-18 02:12:00,
2013-01-17 21:17:00,33.5,32.5,30.01,NE,35,0.0,3.0,96,0.07,,---,1.94,VWS V14.01,2013-01-18 02:17:00,
2013-01-17 21:22:00,33.4,32.4,30.01,NE,35,0.0,1.0,96,0.03,,---,1.94,VWS V14.01,2013-01-18 02:22:00,
2013-01-17 21:27:00,33.3,32.3,30.01,NE,35,0.0,1.0,96,0.03,,---,1.94,VWS V14.01,2013-01-18 02:27:00,
2013-01-17 21:32:00,33.3,32.5,30.02,NE,35,0.0,0.0,97,0.02,,---,1.94,VWS V14.01,2013-01-18 02:32:00,
2013-01-17 21:37:00,33.3,32.5,30.02,NNE,29,2.0,2.0,97,0.02,,---,1.94,VWS V14.01,2013-01-18 02:37:00,
2013-01-17 21:42:00,33.3,32.5,30.02,North,10,0.0,2.0,97,0.00,,---,1.94,VWS V14.01,2013-01-18 02:42:00,
2013-01-17 21:47:00,33.2,32.4,30.05,North,10,0.0,2.0,97,0.00,,---,1.94,VWS V14.01,2013-01-18 02:47:00,
2013-01-17 21:52:00,33.2,32.4,30.05,North,10,0.0,0.0,97,0.00,,---,1.94,VWS V14.01,2013-01-18 02:52:00,
2013-01-17 21:58:00,33.2,32.4,30.05,NNW,339,0.0,1.0,97,0.00,,---,1.94,VWS V14.01,2013-01-18 02:58:00,
2013-01-17 22:03:00,33.2,32.4,30.06,NNW,329,0.0,2.0,97,0.00,,---,1.94,VWS V14.01,2013-01-18 03:03:00,
2013-01-17 22:08:00,33.2,32.4,30.06,NNW,329,0.0,2.0,97,0.00,,---,1.94,VWS V14.01,2013-01-18 03:08:00,
2013-01-17 22:13:00,33.2,32.4,30.06,NW,325,1.0,2.0,97,0.00,,---,1.94,VWS V14.01,2013-01-18 03:13:00,
2013-01-17 22:18:00,33.2,32.4,30.08,West,278,0.0,3.0,97,0.00,,---,1.94,VWS V14.01,2013-01-18 03:18:00,
2013-01-17 22:23:00,33.2,32.4,30.08,West,278,0.0,2.0,97,0.00,,---,1.94,VWS V14.01,2013-01-18 03:23:00,
2013-01-17 22:28:00,33.3,32.5,30.08,West,278,3.0,4.0,97,0.01,,---,1.95,VWS V14.01,2013-01-18 03:28:00,
2013-01-17 22:33:00,33.3,32.5,30.09,West,278,2.0,5.0,97,0.01,,---,1.95,VWS V14.01,2013-01-18 03:33:00,
2013-01-17 22:38:00,33.3,32.5,30.09,West,278,0.0,5.0,97,0.01,,---,1.95,VWS V14.01,2013-01-18 03:38:00,
2013-01-17 22:43:00,33.3,32.5,30.09,West,278,0.0,1.0,97,0.02,,---,1.96,VWS V14.01,2013-01-18 03:43:00,
2013-01-17 22:48:00,33.4,32.6,30.11,West,273,3.0,4.0,97,0.02,,---,1.96,VWS V14.01,2013-01-18 03:48:00,
2013-01-17 22:53:00,33.4,32.6,30.11,West,273,3.0,4.0,97,0.02,,---,1.96,VWS V14.01,2013-01-18 03:53:00,
2013-01-17 22:58:00,33.4,32.6,30.11,West,273,0.0,4.0,97,0.02,,---,1.96,VWS V14.01,2013-01-18 03:58:00,
2013-01-17 23:03:00,33.4,32.6,30.11,West,273,0.0,1.0,97,0.02,,---,1.96,VWS V14.01,2013-01-18 04:03:00,
2013-01-17 23:08:00,33.4,32.6,30.11,West,273,1.0,3.0,97,0.02,,---,1.96,VWS V14.01,2013-01-18 04:08:00,
2013-01-17 23:13:00,33.5,32.7,30.13,West,273,2.0,4.0,97,0.02,,---,1.96,VWS V14.01,2013-01-18 04:13:00,
2013-01-17 23:19:00,33.6,33.1,30.13,West,281,2.0,4.0,98,0.03,,---,1.97,VWS V14.01,2013-01-18 04:19:00,
2013-01-17 23:24:00,33.6,32.8,30.13,West,281,0.0,4.0,97,0.03,,---,1.97,VWS V14.01,2013-01-18 04:24:00,
2013-01-17 23:28:00,33.6,32.8,30.13,West,281,2.0,4.0,97,0.03,,---,1.97,VWS V14.01,2013-01-18 04:28:00,
2013-01-17 23:34:00,33.7,32.9,30.13,West,281,0.0,2.0,97,0.02,,---,1.97,VWS V14.01,2013-01-18 04:34:00,
2013-01-17 23:39:00,33.7,32.9,30.13,West,281,0.0,3.0,97,0.02,,---,1.97,VWS V14.01,2013-01-18 04:39:00,
2013-01-17 23:44:00,33.6,32.8,30.13,West,281,0.0,0.0,97,0.02,,---,1.97,VWS V14.01,2013-01-18 04:44:00,
2013-01-17 23:49:00,33.5,32.7,30.13,West,281,0.0,0.0,97,0.02,,---,1.97,VWS V14.01,2013-01-18 04:49:00,
2013-01-17 23:54:00,33.4,32.6,30.13,West,281,0.0,0.0,97,0.01,,---,1.97,VWS V14.01,2013-01-18 04:54:00,
2013-01-17 23:59:00,33.2,32.7,30.12,West,281,0.0,0.0,98,0.01,,---,1.97,VWS V14.01,2013-01-18 04:59:00,